Ride Results

Wally's Stockyard Ride (12-11-2016)
Ride distance: 80.0 km

Outcomes - Wally's Stockyard Ride (12-11-2016)
Division No. of Entries Retired / DNE Completed Withdrawn Ineligible V/O Percentage Completed
HW 1 - 1 - - - 100.00%
MW 16 - 16 - - - 100.00%
LW 9 - 8 1 - - 88.89%
JN 4 - 2 1 - 1 50.00%
Totals 30 - 27 2 - 1 90.00%
Results - Wally's Stockyard Ride (12-11-2016)
No. Rider Horse Place Time Leg Speeds Total
Km/Hr
H/R bpm
Heavyweight
167 Bill Verspaandonk Eaglehawk Shiraz 1 (BC) 6:06:00 15.1, 11.5 13.11 42, 50, 52 (Avg:51)
Middleweight
192 Tabitha Verspaandonk Eminem Phairow 1 5:24:00 15.1, 14.4 14.81 39, 48, 54 (Avg:51)
126 Wendy Riha Bullio Gebreselassie 2 (BC) 5:35:00 14.0, 14.6 14.33 33, 43, 45 (Avg:44)
84 Kristie Taprell Castlebar Belair 2 5:35:00 14.0, 14.6 14.33 35, 46, 49 (Avg:47)
21 Frith Szigethy-Gyula Littlebanks Magic Wings 4 5:38:00 15.2, 13.2 14.20 41, 53, 49 (Avg:51)
152 Naomi O'Shaughnessy Castlebar Party Girl 5 6:06:00 13.7, 12.5 13.11 36, 49, 48 (Avg:48)
254 Danielle Griffin Castle Downs Challenge 6 6:12:00 12.7, 13.0 12.90 43, 46, 55 (Avg:50)
797 Sharyn Coulston Castlebar Cossack 7 6:50:00 11.9, 11.4 11.71 85, 55, 52 (Avg:53)
775 Amily Daw Temar Mahavee 7 6:50:00 11.9, 11.4 11.71 43, 48, 42 (Avg:45)
13 Linda Tanian Castlebar Coruba 7 6:50:00 11.9, 11.4 11.71 40, 48, 47 (Avg:47)
131 Simon Thomas Morundah Just Sharii 10 7:09:00 11.8, 10.5 11.19 34, 48, 52 (Avg:50)
351 Steve Blackhurst Shemali Saladin 11 7:28:00 10.8, 10.6 10.71 42, 52, 52 (Avg:52)
798 Michelle Goodley San Ella Lancalot 12 7:45:00 10.7, 9.9 10.32 38, 45, 43 (Avg:44)
799 Nicole Sathananthan Accelerate 13 7:47:00 72.7, 5.5 10.28 47, 47, 56 (Avg:51)
307 Stephen Edwards Taylorsglen Cedarmann 14 8:29:00 9.9, 8.9 9.43 40, 48, 49 (Avg:48)
250 Kerry Alderton Madrigal Park Larbonetta 15 8:54:00 8.4, 9.5 8.99 40, 45, 55 (Avg:50)
796 Sheryl Symes Kalimnah Farm Mr Walker 15 8:54:00 8.4, 9.5 8.99 48, 47, 52 (Avg:49)
Lightweight
278 Gina Thompson Kato 1 (BC) 5:33:00 15.2, 13.6 14.41 37, 50, 54 (Avg:52)
229 Nathalie Thome Musk Valley Dragonfly 2 6:10:00 12.6, 13.3 12.97 43, 49, 49 (Avg:49)
320 Kerry Bail Eddann Omorose 3 6:12:00 12.7, 13.0 12.90 35, 48, 46 (Avg:47)
91 Kim Noble Sbara Turbo 4 7:16:00 10.9, 11.0 11.01 39, 45, 51 (Avg:48)
774 Morgan Bright Musical Gully Largo 5 7:28:00 10.8, 10.6 10.71 36, 42, 44 (Avg:43)
244 Marty Bryson Willy 6 7:47:00 11.2, 9.4 10.28 48, 46, 51 (Avg:48)
63 Pamela Cox Al-Marah Thunder Bay 6 7:47:00 11.2, 9.4 10.28 42, 48, 58 (Avg:53)
208 Janeen Smith Taylorsglen Oakswood 8 8:29:00 9.9, 8.9 9.43 41, 44, 47 (Avg:45)
322 Brittany Elliott Alert Mi Withdrawn L1 0:00:00 - - 43, 55 (Avg:55)
Junior
281 Chloe Hubczack 1 (BC) 7:28:00 10.8, 10.6 10.71 42, 51, 52 (Avg:51)
767 Grace Goodley Ali'Nar 2 7:45:00 10.7, 9.9 10.32 37, 42, 44 (Avg:43)
292 Alison Noble Springridge Elite Heart Rate L2 0:00:00 10.9, 11.0 - 41, 53, 64 (Avg:58)
769 Ruby Thompson Capleach Mutineer Withdrawn L1 0:00:00 - - 32, 42 (Avg:42)